Hindsville, Arkansas
Current Conditions -  °F | °C
As of 8:48 PM on Monday 22 Dec 2014 (Local Time) from KASG Reporting Station
Haze Haze  
Wind Chill: 44°   Ceiling: Unl
Heat Index: 46°   Visibility: 4mi
Dew Point: 45°   Wind: 6mph
Humidity: 93%   Direction: 270°W
Pressure: 29.65"   Gusts: NA
Location:  36.14°N, 93.86°W
Report Text: KASG 230248Z 27005KT 4SM BR SCT032 08/07 A2965
Loading
Personal Weather Stations






























Interactive Weather Map New forecast layout! Learn more

10-Day Weather Forecast

Advertisements
Track Severe Weather on mobile